createdAt,value
2022-12-14T00:02:06.896Z,68.00
2022-12-14T00:04:39.842Z,67.60
2022-12-14T00:07:12.682Z,63.80
2022-12-14T00:09:47.311Z,53.10
2022-12-14T00:12:20.237Z,64.40
2022-12-14T00:14:53.118Z,63.40
2022-12-14T00:17:26.361Z,60.50
2022-12-14T00:19:59.155Z,58.00
2022-12-14T00:22:31.981Z,48.40
2022-12-14T00:25:05.123Z,51.70
2022-12-14T00:27:42.795Z,54.90
2022-12-14T00:30:18.295Z,47.20
2022-12-14T00:32:51.804Z,63.90
2022-12-14T00:35:24.916Z,41.80
2022-12-14T00:37:57.714Z,58.60
2022-12-14T00:40:30.629Z,55.30
2022-12-14T00:43:04.152Z,61.00
2022-12-14T00:45:36.965Z,56.50
2022-12-14T00:48:10.675Z,62.40
2022-12-14T00:50:43.602Z,59.70
2022-12-14T00:53:21.981Z,70.80
2022-12-14T00:55:55.939Z,52.00
2022-12-14T00:58:30.688Z,53.10
2022-12-14T01:01:06.127Z,68.10
2022-12-14T01:03:39.569Z,47.40
2022-12-14T01:06:18.796Z,53.80
2022-12-14T01:08:52.049Z,43.20
2022-12-14T01:11:25.332Z,52.30
2022-12-14T01:14:00.106Z,59.80
2022-12-14T01:16:33.069Z,59.30
2022-12-14T01:19:07.240Z,59.20
2022-12-14T01:21:40.137Z,62.90
2022-12-14T01:24:13.260Z,45.90
2022-12-14T01:26:46.026Z,48.50
2022-12-14T01:29:19.032Z,58.90
2022-12-14T01:31:52.042Z,61.70
2022-12-14T01:34:24.934Z,57.20
2022-12-14T01:36:57.800Z,57.20
2022-12-14T01:39:30.643Z,59.10
2022-12-14T01:42:03.455Z,54.30
2022-12-14T01:45:17.961Z,57.40
2022-12-14T01:47:55.900Z,51.40
2022-12-14T01:50:35.973Z,31.80
2022-12-14T01:53:13.458Z,46.40
2022-12-14T01:55:50.979Z,61.10
2022-12-14T01:58:26.627Z,52.60
2022-12-14T02:01:03.226Z,53.30
2022-12-14T02:03:38.779Z,49.90
2022-12-14T02:06:17.421Z,62.00
2022-12-14T02:08:52.268Z,49.40
2022-12-14T02:11:36.701Z,52.70
2022-12-14T02:14:09.669Z,56.00
2022-12-14T02:16:43.260Z,41.80
2022-12-14T02:19:16.214Z,44.40
2022-12-14T02:22:15.429Z,43.00
2022-12-14T02:25:32.974Z,37.10
2022-12-14T02:28:39.264Z,60.90
2022-12-14T02:31:21.664Z,51.50
2022-12-14T02:34:00.657Z,47.10
2022-12-14T02:36:42.433Z,54.70
2022-12-14T02:39:24.121Z,31.90
2022-12-14T02:42:07.911Z,45.80
2022-12-14T02:44:51.413Z,49.80
2022-12-14T02:47:33.167Z,35.30
2022-12-14T02:50:13.077Z,29.20
2022-12-14T02:52:56.053Z,49.90
2022-12-14T02:55:33.873Z,12.70
2022-12-14T02:58:15.982Z,65.70
2022-12-14T03:00:50.424Z,32.40
2022-12-14T03:03:23.396Z,37.30
2022-12-14T03:06:14.908Z,39.00
2022-12-14T03:08:49.330Z,45.70
2022-12-14T03:11:26.764Z,44.70
2022-12-14T03:14:06.017Z,17.40
2022-12-14T03:16:42.482Z,39.50
2022-12-14T03:19:20.176Z,33.00
2022-12-14T03:21:57.358Z,37.30
2022-12-14T03:24:35.985Z,54.80
2022-12-14T03:27:13.295Z,34.60
2022-12-14T03:29:51.552Z,41.20
2022-12-14T03:32:28.567Z,14.70
2022-12-14T03:35:04.957Z,54.40
2022-12-14T03:37:43.635Z,42.70
2022-12-14T03:40:18.148Z,43.30
2022-12-14T03:43:00.274Z,54.30
2022-12-14T03:45:43.547Z,43.90
2022-12-14T03:48:28.924Z,38.50
2022-12-14T03:51:15.810Z,27.20
2022-12-14T03:53:54.528Z,44.80
2022-12-14T03:56:38.350Z,52.80
2022-12-14T03:59:17.504Z,41.30
2022-12-14T04:02:00.141Z,23.20
2022-12-14T04:04:40.787Z,38.40
2022-12-14T04:07:19.899Z,43.10
2022-12-14T04:09:57.357Z,49.60
2022-12-14T04:12:54.865Z,53.80
2022-12-14T04:15:50.329Z,46.70
2022-12-14T04:18:48.013Z,50.00
2022-12-14T04:21:24.846Z,22.70
2022-12-14T04:24:20.699Z,51.10
2022-12-14T04:26:59.618Z,37.70
2022-12-14T04:29:55.302Z,53.30
2022-12-14T04:32:33.456Z,47.10
2022-12-14T04:35:14.038Z,50.60
2022-12-14T04:37:52.426Z,42.90
2022-12-14T04:40:30.613Z,56.30
2022-12-14T04:43:10.797Z,49.20
2022-12-14T04:48:26.641Z,55.20
2022-12-14T04:51:07.746Z,48.30
2022-12-14T04:53:43.393Z,63.90
2022-12-14T04:56:21.693Z,44.50
2022-12-14T04:58:55.248Z,52.60
2022-12-14T05:01:42.717Z,35.20
2022-12-14T05:04:30.704Z,17.30
2022-12-14T05:07:19.497Z,32.80
2022-12-14T05:10:00.869Z,38.70
2022-12-14T05:12:43.084Z,50.40
2022-12-14T05:15:20.493Z,73.60
2022-12-14T05:17:54.033Z,55.40
2022-12-14T05:20:27.967Z,23.40
2022-12-14T05:23:00.846Z,30.30
2022-12-14T05:25:33.633Z,25.80
2022-12-14T05:28:06.625Z,80.90
2022-12-14T05:30:40.727Z,50.30
2022-12-14T05:33:20.136Z,39.50
2022-12-14T05:35:52.977Z,51.70
2022-12-14T05:38:25.745Z,56.90
2022-12-14T05:40:58.641Z,47.70
2022-12-14T05:43:31.608Z,32.10
2022-12-14T05:46:06.047Z,32.70
2022-12-14T05:48:39.181Z,55.20
2022-12-14T05:51:14.635Z,45.20
2022-12-14T05:53:47.471Z,51.70
2022-12-14T05:56:20.371Z,55.80
2022-12-14T05:58:55.301Z,29.60
2022-12-14T06:01:28.257Z,56.00
2022-12-14T06:04:02.070Z,39.30
2022-12-14T06:06:35.993Z,35.90
2022-12-14T06:09:11.395Z,49.90
2022-12-14T06:11:46.115Z,31.20
2022-12-14T06:14:19.406Z,55.60
2022-12-14T06:16:52.520Z,41.90
2022-12-14T06:19:25.545Z,29.80
2022-12-14T06:21:58.317Z,37.70
2022-12-14T06:24:31.088Z,55.30
2022-12-14T06:27:03.957Z,44.90
2022-12-14T06:29:36.804Z,44.60
2022-12-14T06:32:09.991Z,60.50
2022-12-14T06:34:42.834Z,51.20
2022-12-14T06:37:16.232Z,49.70
2022-12-14T06:39:54.139Z,65.20
2022-12-14T06:42:27.670Z,27.40
2022-12-14T06:45:00.556Z,24.40
2022-12-14T06:47:34.783Z,54.50
2022-12-14T06:50:08.753Z,27.00
2022-12-14T06:52:41.669Z,83.60
2022-12-14T06:55:14.791Z,70.40
2022-12-14T06:57:47.704Z,58.00
2022-12-14T07:00:22.118Z,109.20
2022-12-14T07:02:55.240Z,36.40
2022-12-14T07:05:28.648Z,79.60
2022-12-14T07:08:01.720Z,31.60
2022-12-14T07:10:35.210Z,38.00
2022-12-14T07:13:08.065Z,54.40
2022-12-14T07:15:41.007Z,41.80
2022-12-14T07:18:13.902Z,38.30
2022-12-14T07:20:46.925Z,61.20
2022-12-14T07:23:23.442Z,44.60
2022-12-14T07:26:08.871Z,67.10
2022-12-14T07:28:42.512Z,32.10
2022-12-14T07:31:19.333Z,38.20
2022-12-14T07:33:55.344Z,61.80
2022-12-14T07:36:30.150Z,78.20
2022-12-14T07:39:03.086Z,78.30
2022-12-14T07:41:36.235Z,93.80
2022-12-14T07:44:10.223Z,63.20
2022-12-14T07:46:43.728Z,28.60
2022-12-14T07:49:16.681Z,40.20
2022-12-14T07:51:49.533Z,64.90
2022-12-14T07:54:22.715Z,72.80
2022-12-14T07:56:55.637Z,58.10
2022-12-14T07:59:28.475Z,65.60
2022-12-14T08:02:01.360Z,73.30
2022-12-14T08:04:35.610Z,70.70
2022-12-14T08:07:08.542Z,69.90
2022-12-14T08:09:41.681Z,47.90
2022-12-14T08:12:14.645Z,64.20
2022-12-14T08:14:47.478Z,70.60
2022-12-14T08:17:21.877Z,78.50
2022-12-14T08:19:54.725Z,62.50
2022-12-14T08:22:27.611Z,39.10
2022-12-14T08:25:00.480Z,65.00
2022-12-14T08:27:34.337Z,72.30
2022-12-14T08:30:08.737Z,76.70
2022-12-14T08:32:41.543Z,65.80
2022-12-14T08:35:14.635Z,81.50
2022-12-14T08:37:47.855Z,76.00
2022-12-14T08:40:20.924Z,68.50
2022-12-14T08:42:55.812Z,86.80
2022-12-14T08:45:28.891Z,86.80
2022-12-14T08:48:03.413Z,71.40
2022-12-14T08:50:36.300Z,82.70
2022-12-14T08:53:09.135Z,82.40
2022-12-14T08:55:43.079Z,93.20
2022-12-14T08:58:16.303Z,88.80
2022-12-14T09:00:49.342Z,98.40
2022-12-14T09:03:23.797Z,92.90
2022-12-14T09:05:56.756Z,74.10
2022-12-14T09:08:30.020Z,90.40
2022-12-14T09:11:04.056Z,91.30
2022-12-14T09:13:37.170Z,82.40
2022-12-14T09:16:14.735Z,85.70
2022-12-14T09:18:49.007Z,80.00
2022-12-14T09:21:21.930Z,84.50
2022-12-14T09:23:59.200Z,84.80
2022-12-14T09:26:33.951Z,84.10
2022-12-14T09:29:06.901Z,77.90
2022-12-14T09:31:39.910Z,80.00
2022-12-14T09:34:13.257Z,90.20
2022-12-14T09:36:46.298Z,87.50
2022-12-14T09:39:19.399Z,83.20
2022-12-14T09:42:09.690Z,84.70
2022-12-14T09:44:59.326Z,93.30
2022-12-14T09:47:39.268Z,81.50
2022-12-14T09:50:19.063Z,87.30
2022-12-14T09:52:54.597Z,85.90
2022-12-14T09:55:32.948Z,86.40
2022-12-14T09:58:16.295Z,94.90
2022-12-14T10:00:57.740Z,93.40
2022-12-14T10:03:53.126Z,92.30
2022-12-14T10:06:38.280Z,91.50
2022-12-14T10:09:25.534Z,81.70
2022-12-14T10:12:04.937Z,80.50
2022-12-14T10:14:57.082Z,72.90
2022-12-14T10:17:39.948Z,88.40
2022-12-14T10:20:24.737Z,79.50
2022-12-14T10:22:58.264Z,104.40
2022-12-14T10:25:34.368Z,78.50
2022-12-14T10:28:13.573Z,68.60
2022-12-14T10:30:47.734Z,92.20
2022-12-14T10:33:27.675Z,95.80
2022-12-14T10:36:10.904Z,86.10
2022-12-14T10:38:53.598Z,94.10
2022-12-14T10:41:34.404Z,76.30
2022-12-14T10:44:19.201Z,94.90
2022-12-14T10:47:01.056Z,71.70
2022-12-14T10:49:40.807Z,75.90
2022-12-14T10:52:19.335Z,84.10
2022-12-14T10:54:57.083Z,73.80
2022-12-14T10:57:30.890Z,78.00
2022-12-14T11:00:13.386Z,69.80
2022-12-14T11:02:53.732Z,70.10
2022-12-14T11:05:38.897Z,71.70
2022-12-14T11:08:48.318Z,69.60
2022-12-14T11:11:26.121Z,65.60
2022-12-14T11:14:10.657Z,55.10
2022-12-14T11:16:44.181Z,63.80
2022-12-14T11:19:22.832Z,66.90
2022-12-14T11:22:15.855Z,60.40
2022-12-14T11:24:53.099Z,130.70
2022-12-14T11:27:26.193Z,86.00
2022-12-14T11:29:59.376Z,67.10
2022-12-14T11:32:32.219Z,74.70
2022-12-14T11:35:05.305Z,68.80
2022-12-14T11:37:38.219Z,73.50
2022-12-14T11:40:24.697Z,59.50
2022-12-14T11:43:04.777Z,60.00
2022-12-14T11:45:39.569Z,70.70
2022-12-14T11:48:29.685Z,59.60
2022-12-14T11:51:15.754Z,68.80
2022-12-14T11:54:04.839Z,61.60
2022-12-14T11:56:39.501Z,59.60
2022-12-14T11:59:19.680Z,51.00
2022-12-14T12:01:52.634Z,53.60
2022-12-14T12:04:26.373Z,63.10
2022-12-14T12:07:04.334Z,58.70
2022-12-14T12:09:37.951Z,62.20
2022-12-14T12:12:19.402Z,61.30
2022-12-14T12:14:56.902Z,58.10
2022-12-14T12:17:44.636Z,49.80
2022-12-14T12:20:29.709Z,61.60
2022-12-14T12:23:08.456Z,48.50
2022-12-14T12:25:43.128Z,55.70
2022-12-14T12:28:24.424Z,46.00
2022-12-14T12:31:09.001Z,56.90
2022-12-14T12:33:51.790Z,56.40
2022-12-14T12:36:25.819Z,54.60
2022-12-14T12:39:15.028Z,56.80
2022-12-14T12:42:03.567Z,53.60
2022-12-14T12:44:50.390Z,46.70
2022-12-14T12:47:38.488Z,40.60
2022-12-14T12:50:23.939Z,47.10
2022-12-14T12:53:03.930Z,38.70
2022-12-14T12:55:43.412Z,44.40
2022-12-14T12:58:29.246Z,41.30
2022-12-14T13:01:06.814Z,46.90
2022-12-14T13:03:45.393Z,41.60
2022-12-14T13:06:25.748Z,44.50
2022-12-14T13:09:03.051Z,46.50
2022-12-14T13:11:41.000Z,43.90
2022-12-14T13:14:30.677Z,45.00
2022-12-14T13:17:07.808Z,38.80
2022-12-14T13:19:50.227Z,41.90
2022-12-14T13:22:30.467Z,44.90
2022-12-14T13:25:10.391Z,44.40
2022-12-14T13:28:10.153Z,41.60
2022-12-14T13:31:05.700Z,45.00
2022-12-14T13:34:12.352Z,41.20
2022-12-14T13:37:25.775Z,37.60
2022-12-14T13:40:32.455Z,46.70
2022-12-14T13:43:22.238Z,46.40
2022-12-14T13:45:56.010Z,42.10
2022-12-14T13:48:35.080Z,49.20
2022-12-14T13:51:11.098Z,35.10
2022-12-14T13:53:50.522Z,33.30
2022-12-14T13:56:32.918Z,36.50
2022-12-14T13:59:20.677Z,41.80
2022-12-14T14:02:05.296Z,33.90
2022-12-14T14:04:38.509Z,35.60
2022-12-14T14:07:53.576Z,40.50
2022-12-14T14:10:38.422Z,39.70
2022-12-14T14:13:58.187Z,39.90
2022-12-14T14:16:38.821Z,33.00
2022-12-14T14:19:24.106Z,45.60
2022-12-14T14:22:23.670Z,37.40
2022-12-14T14:25:01.383Z,49.90
2022-12-14T14:27:43.029Z,45.00
2022-12-14T14:30:35.008Z,49.10
2022-12-14T14:33:48.568Z,46.10
2022-12-14T14:36:33.519Z,39.20
2022-12-14T14:39:31.524Z,38.10
2022-12-14T14:42:04.133Z,37.50
2022-12-14T14:44:44.375Z,42.00
2022-12-14T14:47:29.468Z,46.40
2022-12-14T14:50:06.057Z,41.70
2022-12-14T14:53:12.502Z,46.40
2022-12-14T14:56:07.094Z,44.90
2022-12-14T14:58:42.306Z,48.30
2022-12-14T15:01:29.785Z,44.10
2022-12-14T15:04:08.037Z,45.20
2022-12-14T15:06:47.358Z,53.90
2022-12-14T15:09:28.535Z,51.00
2022-12-14T15:12:09.255Z,55.50
2022-12-14T15:14:48.762Z,61.30
2022-12-14T15:17:26.720Z,51.80
2022-12-14T15:20:02.431Z,57.60
2022-12-14T15:22:44.143Z,52.00
2022-12-14T15:25:23.723Z,42.40
2022-12-14T15:27:58.005Z,48.40
2022-12-14T15:30:32.477Z,53.10
2022-12-14T15:33:10.283Z,44.10
2022-12-14T15:35:45.680Z,49.90
2022-12-14T15:38:31.868Z,51.90
2022-12-14T15:41:07.733Z,56.30
2022-12-14T15:43:46.749Z,57.80
2022-12-14T15:46:24.995Z,49.40
2022-12-14T15:49:03.760Z,42.90
2022-12-14T15:51:40.536Z,48.90
2022-12-14T15:54:20.393Z,51.10
2022-12-14T15:56:55.843Z,61.80
2022-12-14T15:59:32.762Z,49.00
2022-12-14T16:02:17.280Z,51.10
2022-12-14T16:04:51.025Z,50.60
2022-12-14T16:07:30.096Z,49.30
2022-12-14T16:10:08.452Z,62.70
2022-12-14T16:12:46.764Z,51.50
2022-12-14T16:15:25.348Z,52.40
2022-12-14T16:18:02.743Z,49.60
2022-12-14T16:20:39.422Z,46.50
2022-12-14T16:23:32.101Z,40.90
2022-12-14T16:26:22.290Z,45.10
2022-12-14T16:29:20.564Z,53.40
2022-12-14T16:32:00.690Z,47.30
